createdAt,value
2023-03-22T00:02:04.916Z,10.59
2023-03-22T00:05:06.910Z,10.60
2023-03-22T00:08:09.240Z,10.56
2023-03-22T00:11:12.607Z,10.52
2023-03-22T00:14:13.993Z,10.55
2023-03-22T00:17:15.607Z,10.57
2023-03-22T00:20:20.920Z,10.56
2023-03-22T00:23:23.468Z,10.57
2023-03-22T00:26:24.854Z,10.60
2023-03-22T00:29:26.542Z,10.60
2023-03-22T00:32:28.132Z,10.63
2023-03-22T00:35:29.583Z,10.64
2023-03-22T00:38:42.879Z,10.68
2023-03-22T00:41:45.470Z,10.69
2023-03-22T00:44:46.894Z,10.70
2023-03-22T00:47:48.395Z,10.78
2023-03-22T00:50:50.062Z,10.84
2023-03-22T00:53:53.844Z,10.85
2023-03-22T00:56:55.384Z,10.85
2023-03-22T00:59:58.190Z,10.81
2023-03-22T01:03:04.900Z,10.77
2023-03-22T01:06:06.892Z,10.76
2023-03-22T01:09:09.185Z,10.78
2023-03-22T01:12:11.191Z,10.74
2023-03-22T01:15:12.810Z,10.76
2023-03-22T01:18:14.319Z,10.74
2023-03-22T01:21:15.836Z,10.79
2023-03-22T01:24:17.284Z,10.79
2023-03-22T01:27:18.678Z,10.78
2023-03-22T01:30:20.309Z,10.80
2023-03-22T01:33:22.085Z,10.76
2023-03-22T01:36:24.333Z,10.74
2023-03-22T01:39:27.174Z,10.71
2023-03-22T01:42:32.673Z,10.74
2023-03-22T01:45:48.716Z,10.77
2023-03-22T01:48:50.651Z,10.79
2023-03-22T01:51:55.618Z,10.80
2023-03-22T01:55:06.634Z,10.79
2023-03-22T01:58:19.218Z,10.76
2023-03-22T02:01:25.591Z,10.79
2023-03-22T02:04:34.321Z,10.80
2023-03-22T02:07:42.167Z,10.79
2023-03-22T02:10:43.695Z,10.72
2023-03-22T02:14:09.418Z,10.74
2023-03-22T02:17:54.234Z,10.75
2023-03-22T02:21:14.969Z,10.79
2023-03-22T02:24:37.699Z,10.84
2023-03-22T02:27:42.509Z,10.84
2023-03-22T02:31:02.156Z,10.86
2023-03-22T02:34:41.268Z,10.93
2023-03-22T02:38:01.521Z,10.94
2023-03-22T02:41:27.865Z,10.96
2023-03-22T02:44:36.207Z,10.99
2023-03-22T02:47:58.553Z,11.03
2023-03-22T02:51:05.733Z,11.05
2023-03-22T02:54:15.223Z,11.03
2023-03-22T02:57:26.124Z,11.08
2023-03-22T03:00:33.172Z,11.08
2023-03-22T03:03:37.803Z,11.08
2023-03-22T03:06:46.434Z,11.12
2023-03-22T03:09:49.018Z,11.21
2023-03-22T03:12:50.485Z,11.26
2023-03-22T03:15:57.293Z,11.34
2023-03-22T03:19:16.142Z,11.29
2023-03-22T03:22:36.804Z,11.17
2023-03-22T03:25:46.216Z,11.13
2023-03-22T03:28:53.158Z,11.18
2023-03-22T03:32:15.760Z,11.16
2023-03-22T03:35:22.948Z,11.13
2023-03-22T03:38:31.467Z,11.11
2023-03-22T03:41:34.391Z,11.12
2023-03-22T03:44:36.520Z,11.09
2023-03-22T03:47:39.648Z,11.05
2023-03-22T03:50:42.028Z,11.03
2023-03-22T03:53:45.361Z,11.01
2023-03-22T03:56:50.840Z,10.99
2023-03-22T03:59:52.673Z,10.87
2023-03-22T04:03:05.658Z,10.80
2023-03-22T04:06:28.904Z,10.71
2023-03-22T04:09:41.494Z,10.71
2023-03-22T04:12:54.234Z,10.68
2023-03-22T04:15:57.376Z,10.59
2023-03-22T04:18:58.993Z,10.56
2023-03-22T04:22:00.464Z,10.56
2023-03-22T04:25:01.981Z,10.56
2023-03-22T04:28:05.294Z,10.50
2023-03-22T04:31:10.720Z,10.49
2023-03-22T04:34:29.459Z,10.48
2023-03-22T04:37:34.920Z,10.44
2023-03-22T04:40:49.059Z,10.43
2023-03-22T04:44:03.323Z,10.40
2023-03-22T04:47:06.799Z,10.39
2023-03-22T04:50:09.507Z,10.39
2023-03-22T04:53:20.265Z,10.39
2023-03-22T04:56:22.348Z,10.38
2023-03-22T04:59:26.612Z,10.38
2023-03-22T05:02:28.300Z,10.39
2023-03-22T05:05:30.365Z,10.40
2023-03-22T05:08:35.409Z,10.37
2023-03-22T05:11:37.475Z,10.43
2023-03-22T05:14:53.160Z,10.35
2023-03-22T05:17:58.985Z,10.22
2023-03-22T05:21:03.695Z,10.20
2023-03-22T05:24:05.612Z,10.28
2023-03-22T05:27:07.074Z,10.20
2023-03-22T05:30:09.950Z,10.13
2023-03-22T05:33:31.765Z,10.01
2023-03-22T05:36:36.359Z,9.92
2023-03-22T05:39:56.614Z,9.89
2023-03-22T05:43:07.114Z,9.83
2023-03-22T05:46:11.571Z,9.84
2023-03-22T05:49:48.210Z,9.80
2023-03-22T05:52:51.953Z,9.81
2023-03-22T05:56:16.253Z,9.81
2023-03-22T05:59:20.829Z,9.83
2023-03-22T06:02:22.482Z,9.77
2023-03-22T06:05:24.004Z,9.78
2023-03-22T06:08:26.950Z,9.77
2023-03-22T06:11:30.485Z,9.82
2023-03-22T06:14:31.992Z,9.86
2023-03-22T06:17:51.264Z,9.83
2023-03-22T06:20:57.807Z,9.88
2023-03-22T06:23:59.635Z,9.91
2023-03-22T06:27:02.655Z,10.00
2023-03-22T06:30:06.253Z,10.12
2023-03-22T06:33:16.537Z,10.26
2023-03-22T06:36:21.849Z,10.39
2023-03-22T06:39:38.001Z,10.55
2023-03-22T06:42:39.450Z,10.66
2023-03-22T06:45:48.192Z,10.69
2023-03-22T06:48:55.650Z,10.71
2023-03-22T06:51:57.412Z,10.73
2023-03-22T06:54:58.891Z,10.73
2023-03-22T06:58:01.439Z,10.82
2023-03-22T07:01:03.115Z,10.94
2023-03-22T07:04:06.532Z,11.09
2023-03-22T07:07:08.007Z,11.11
2023-03-22T07:10:10.956Z,11.26
2023-03-22T07:13:13.194Z,11.40
2023-03-22T07:16:15.347Z,11.44
2023-03-22T07:19:24.606Z,11.54
2023-03-22T07:22:27.172Z,11.72
2023-03-22T07:25:29.277Z,11.76
2023-03-22T07:28:44.593Z,11.89
2023-03-22T07:31:47.979Z,11.95
2023-03-22T07:34:59.780Z,11.99
2023-03-22T07:38:01.389Z,12.13
2023-03-22T07:41:06.644Z,12.25
2023-03-22T07:44:27.958Z,12.37
2023-03-22T07:47:52.688Z,12.50
2023-03-22T07:51:20.253Z,12.61
2023-03-22T07:54:33.005Z,12.81
2023-03-22T07:57:37.036Z,12.80
2023-03-22T08:00:38.847Z,12.95
2023-03-22T08:04:00.671Z,13.07
2023-03-22T08:07:30.201Z,13.32
2023-03-22T08:10:32.831Z,13.56
2023-03-22T08:13:36.157Z,13.50
2023-03-22T08:16:38.400Z,13.71
2023-03-22T08:19:40.713Z,13.99
2023-03-22T08:22:46.176Z,14.13
2023-03-22T08:25:53.780Z,14.33
2023-03-22T08:28:56.890Z,14.54
2023-03-22T08:32:02.318Z,14.71
2023-03-22T08:35:06.352Z,14.72
2023-03-22T08:38:08.402Z,14.71
2023-03-22T08:41:17.282Z,14.84
2023-03-22T08:44:18.681Z,14.96
2023-03-22T08:47:20.200Z,15.18
2023-03-22T08:50:26.622Z,15.43
2023-03-22T08:53:39.829Z,15.56
2023-03-22T08:57:03.389Z,15.73
2023-03-22T09:00:23.873Z,15.73
2023-03-22T09:03:35.962Z,15.62
2023-03-22T09:06:37.933Z,15.62
2023-03-22T09:09:39.565Z,15.67
2023-03-22T09:12:42.346Z,15.74
2023-03-22T09:15:47.472Z,15.86
2023-03-22T09:18:55.935Z,15.65
2023-03-22T09:21:58.689Z,15.69
2023-03-22T09:25:15.407Z,15.68
2023-03-22T09:28:19.942Z,15.74
2023-03-22T09:31:21.969Z,15.74
2023-03-22T09:34:33.576Z,15.87
2023-03-22T09:37:35.589Z,15.94
2023-03-22T09:40:43.322Z,16.31
2023-03-22T09:43:50.860Z,16.72
2023-03-22T09:46:54.992Z,17.00
2023-03-22T09:50:05.247Z,17.02
2023-03-22T09:53:13.696Z,17.04
2023-03-22T09:56:23.737Z,16.55
2023-03-22T09:59:35.989Z,16.72
2023-03-22T10:02:46.523Z,16.71
2023-03-22T10:06:00.122Z,16.81
2023-03-22T10:09:19.177Z,16.89
2023-03-22T10:12:29.261Z,17.04
2023-03-22T10:15:44.560Z,16.75
2023-03-22T10:18:51.517Z,16.49
2023-03-22T10:21:56.541Z,16.74
2023-03-22T10:24:59.958Z,16.69
2023-03-22T10:28:02.277Z,16.59
2023-03-22T10:31:05.786Z,16.54
2023-03-22T10:34:16.903Z,16.67
2023-03-22T10:37:24.831Z,16.78
2023-03-22T10:40:30.897Z,16.67
2023-03-22T10:43:36.819Z,16.84
2023-03-22T10:46:40.615Z,16.78
2023-03-22T10:49:46.313Z,16.73
2023-03-22T10:52:56.558Z,17.05
2023-03-22T10:55:58.530Z,17.28
2023-03-22T10:58:59.918Z,17.50
2023-03-22T11:02:01.853Z,17.56
2023-03-22T11:05:05.791Z,17.72
2023-03-22T11:08:07.266Z,17.77
2023-03-22T11:11:36.538Z,17.96
2023-03-22T11:14:43.887Z,18.07
2023-03-22T11:17:45.457Z,18.12
2023-03-22T11:20:59.754Z,18.23
2023-03-22T11:24:05.751Z,18.30
2023-03-22T11:27:19.428Z,18.34
2023-03-22T11:30:24.525Z,18.32
2023-03-22T11:33:26.038Z,18.30
2023-03-22T11:36:29.028Z,18.32
2023-03-22T11:39:30.572Z,18.58
2023-03-22T11:42:34.255Z,18.55
2023-03-22T11:45:41.101Z,18.60
2023-03-22T11:48:45.423Z,18.83
2023-03-22T11:51:46.933Z,19.05
2023-03-22T11:54:49.915Z,18.75
2023-03-22T11:57:55.794Z,18.67
2023-03-22T12:01:01.948Z,18.65
2023-03-22T12:04:08.066Z,18.88
2023-03-22T12:07:16.103Z,19.14
2023-03-22T12:10:26.535Z,19.15
2023-03-22T12:14:00.475Z,18.71
2023-03-22T12:17:11.936Z,18.86
2023-03-22T12:20:32.916Z,19.12
2023-03-22T12:23:37.795Z,19.21
2023-03-22T12:26:39.717Z,19.08
2023-03-22T12:29:47.203Z,19.09
2023-03-22T12:33:14.215Z,19.32
2023-03-22T12:36:23.807Z,19.29
2023-03-22T12:39:37.676Z,19.35
2023-03-22T12:42:51.816Z,19.56
2023-03-22T12:46:01.687Z,19.37
2023-03-22T12:49:19.325Z,19.12
2023-03-22T12:52:32.018Z,19.27
2023-03-22T12:55:41.207Z,19.30
2023-03-22T12:58:48.147Z,19.38
2023-03-22T13:02:15.933Z,19.36
2023-03-22T13:05:18.257Z,19.68
2023-03-22T13:08:22.302Z,19.97
2023-03-22T13:11:24.282Z,20.02
2023-03-22T13:14:56.528Z,19.99
2023-03-22T13:17:58.904Z,20.15
2023-03-22T13:21:29.257Z,20.34
2023-03-22T13:24:32.545Z,20.43
2023-03-22T13:27:37.724Z,20.49
2023-03-22T13:30:54.398Z,20.55
2023-03-22T13:33:57.861Z,20.14
2023-03-22T13:37:01.516Z,19.97
2023-03-22T13:40:27.331Z,20.02
2023-03-22T13:43:31.001Z,19.91
2023-03-22T13:46:35.624Z,19.89
2023-03-22T13:49:54.148Z,19.87
2023-03-22T13:53:06.533Z,19.78
2023-03-22T13:56:12.815Z,19.61
2023-03-22T13:59:24.239Z,19.69
2023-03-22T14:02:30.695Z,19.86
2023-03-22T14:05:36.253Z,19.86
2023-03-22T14:08:40.556Z,19.62
2023-03-22T14:12:08.315Z,19.46
2023-03-22T14:15:17.296Z,19.33
2023-03-22T14:18:33.183Z,19.28
2023-03-22T14:21:39.012Z,19.28
